sensor_id;sensor_type;location;lat;lon;timestamp;pressure;altitude;pressure_sealevel;temperature;humidity
43683;BME280;29285;52.128;21.060;2022-11-20T00:03:19;100258.02;;;-2.01;64.22
43683;BME280;29285;52.128;21.060;2022-11-20T00:08:20;100261.47;;;-1.98;64.24
43683;BME280;29285;52.128;21.060;2022-11-20T00:13:22;100269.09;;;-2.00;64.27
43683;BME280;29285;52.128;21.060;2022-11-20T00:18:24;100270.20;;;-2.05;64.25
43683;BME280;29285;52.128;21.060;2022-11-20T00:23:25;100272.09;;;-2.12;64.17
43683;BME280;29285;52.128;21.060;2022-11-20T00:28:27;100263.76;;;-2.06;64.19
43683;BME280;29285;52.128;21.060;2022-11-20T00:33:28;100258.78;;;-2.03;64.25
43683;BME280;29285;52.128;21.060;2022-11-20T00:38:31;100268.02;;;-2.07;64.22
43683;BME280;29285;52.128;21.060;2022-11-20T00:43:32;100250.80;;;-2.13;64.20
43683;BME280;29285;52.128;21.060;2022-11-20T00:48:34;100258.13;;;-2.22;64.13
43683;BME280;29285;52.128;21.060;2022-11-20T00:53:35;100252.68;;;-2.33;64.10
43683;BME280;29285;52.128;21.060;2022-11-20T00:58:38;100252.95;;;-2.61;63.87
43683;BME280;29285;52.128;21.060;2022-11-20T01:03:42;100240.82;;;-2.91;63.62
43683;BME280;29285;52.128;21.060;2022-11-20T01:08:45;100225.36;;;-3.07;63.56
43683;BME280;29285;52.128;21.060;2022-11-20T01:13:49;100228.34;;;-2.72;63.79
43683;BME280;29285;52.128;21.060;2022-11-20T01:18:54;100232.72;;;-2.56;64.06
43683;BME280;29285;52.128;21.060;2022-11-20T01:23:57;100226.80;;;-2.44;64.23
43683;BME280;29285;52.128;21.060;2022-11-20T01:29:00;100221.10;;;-2.23;64.47
43683;BME280;29285;52.128;21.060;2022-11-20T01:34:05;100223.15;;;-2.13;64.60
43683;BME280;29285;52.128;21.060;2022-11-20T01:39:17;100214.22;;;-2.13;64.65
43683;BME280;29285;52.128;21.060;2022-11-20T01:44:56;100216.83;;;-2.11;64.65
43683;BME280;29285;52.128;21.060;2022-11-20T01:55:23;100217.58;;;-2.03;64.72
43683;BME280;29285;52.128;21.060;2022-11-20T02:00:26;100211.98;;;-2.04;64.72
43683;BME280;29285;52.128;21.060;2022-11-20T02:05:41;100220.46;;;-2.05;64.70
43683;BME280;29285;52.128;21.060;2022-11-20T02:10:43;100207.88;;;-2.00;64.75
43683;BME280;29285;52.128;21.060;2022-11-20T02:15:45;100200.05;;;-1.92;64.84
43683;BME280;29285;52.128;21.060;2022-11-20T02:20:50;100196.73;;;-1.89;64.90
43683;BME280;29285;52.128;21.060;2022-11-20T02:25:55;100195.91;;;-1.88;64.93
43683;BME280;29285;52.128;21.060;2022-11-20T02:30:58;100194.88;;;-1.80;64.98
43683;BME280;29285;52.128;21.060;2022-11-20T02:35:59;100204.88;;;-1.74;65.08
43683;BME280;29285;52.128;21.060;2022-11-20T02:41:00;100195.42;;;-1.63;65.19
43683;BME280;29285;52.128;21.060;2022-11-20T02:46:02;100196.77;;;-1.75;65.16
43683;BME280;29285;52.128;21.060;2022-11-20T02:51:03;100205.65;;;-1.76;65.15
43683;BME280;29285;52.128;21.060;2022-11-20T02:56:05;100199.66;;;-1.91;65.04
43683;BME280;29285;52.128;21.060;2022-11-20T03:37:25;100193.02;;;-1.86;65.46
43683;BME280;29285;52.128;21.060;2022-11-20T03:42:26;100196.92;;;-1.83;65.54
43683;BME280;29285;52.128;21.060;2022-11-20T03:47:46;100188.52;;;-1.93;65.49
43683;BME280;29285;52.128;21.060;2022-11-20T03:52:47;100189.45;;;-1.91;65.48
43683;BME280;29285;52.128;21.060;2022-11-20T03:57:48;100189.95;;;-1.89;65.52
43683;BME280;29285;52.128;21.060;2022-11-20T04:02:50;100187.09;;;-1.85;65.54
43683;BME280;29285;52.128;21.060;2022-11-20T04:07:51;100187.91;;;-1.86;65.57
43683;BME280;29285;52.128;21.060;2022-11-20T04:12:53;100187.75;;;-1.91;65.56
43683;BME280;29285;52.128;21.060;2022-11-20T04:17:54;100178.69;;;-1.95;65.53
43683;BME280;29285;52.128;21.060;2022-11-20T04:22:56;100181.12;;;-1.98;65.49
43683;BME280;29285;52.128;21.060;2022-11-20T04:27:57;100184.10;;;-1.99;65.53
43683;BME280;29285;52.128;21.060;2022-11-20T04:32:58;100179.84;;;-1.98;65.57
43683;BME280;29285;52.128;21.060;2022-11-20T04:37:59;100174.10;;;-2.06;65.53
43683;BME280;29285;52.128;21.060;2022-11-20T04:43:01;100172.26;;;-2.10;65.50
43683;BME280;29285;52.128;21.060;2022-11-20T04:48:02;100164.61;;;-2.10;65.54
43683;BME280;29285;52.128;21.060;2022-11-20T04:53:04;100165.95;;;-2.21;65.49
43683;BME280;29285;52.128;21.060;2022-11-20T04:58:05;100153.91;;;-2.26;65.45
43683;BME280;29285;52.128;21.060;2022-11-20T05:03:06;100153.20;;;-2.21;65.51
43683;BME280;29285;52.128;21.060;2022-11-20T05:08:08;100145.09;;;-2.22;65.54
43683;BME280;29285;52.128;21.060;2022-11-20T05:13:09;100137.47;;;-2.21;65.58
43683;BME280;29285;52.128;21.060;2022-11-20T05:18:10;100127.59;;;-2.24;65.60
43683;BME280;29285;52.128;21.060;2022-11-20T05:23:12;100144.78;;;-2.32;65.57
43683;BME280;29285;52.128;21.060;2022-11-20T05:28:13;100147.59;;;-2.37;65.53
43683;BME280;29285;52.128;21.060;2022-11-20T05:33:15;100151.92;;;-2.34;65.55
43683;BME280;29285;52.128;21.060;2022-11-20T05:38:16;100155.37;;;-2.32;65.61
43683;BME280;29285;52.128;21.060;2022-11-20T05:43:17;100148.18;;;-2.44;65.58
43683;BME280;29285;52.128;21.060;2022-11-20T05:48:19;100146.63;;;-2.41;65.59
43683;BME280;29285;52.128;21.060;2022-11-20T05:53:24;100144.33;;;-2.33;65.70
43683;BME280;29285;52.128;21.060;2022-11-20T05:58:26;100140.91;;;-2.33;65.77
43683;BME280;29285;52.128;21.060;2022-11-20T06:03:28;100134.59;;;-2.45;65.73
43683;BME280;29285;52.128;21.060;2022-11-20T06:08:29;100139.41;;;-2.66;65.56
43683;BME280;29285;52.128;21.060;2022-11-20T06:13:30;100129.25;;;-2.64;65.55
43683;BME280;29285;52.128;21.060;2022-11-20T06:18:32;100134.58;;;-2.58;65.66
43683;BME280;29285;52.128;21.060;2022-11-20T06:23:34;100133.25;;;-2.59;65.67
43683;BME280;29285;52.128;21.060;2022-11-20T06:28:36;100128.23;;;-2.56;65.73
43683;BME280;29285;52.128;21.060;2022-11-20T06:33:37;100126.31;;;-2.50;65.80
43683;BME280;29285;52.128;21.060;2022-11-20T06:38:39;100119.13;;;-2.49;65.81
43683;BME280;29285;52.128;21.060;2022-11-20T06:43:41;100119.57;;;-2.48;65.82
43683;BME280;29285;52.128;21.060;2022-11-20T06:48:43;100127.84;;;-2.43;65.85
43683;BME280;29285;52.128;21.060;2022-11-20T06:53:44;100128.36;;;-2.40;65.87
43683;BME280;29285;52.128;21.060;2022-11-20T06:58:46;100121.33;;;-2.34;65.89
43683;BME280;29285;52.128;21.060;2022-11-20T07:03:48;100128.02;;;-2.25;65.94
43683;BME280;29285;52.128;21.060;2022-11-20T07:08:51;100132.28;;;-2.11;66.01
43683;BME280;29285;52.128;21.060;2022-11-20T07:13:53;100124.16;;;-1.99;66.05
43683;BME280;29285;52.128;21.060;2022-11-20T07:18:54;100122.37;;;-2.02;66.02
43683;BME280;29285;52.128;21.060;2022-11-20T07:23:56;100109.30;;;-1.98;66.04
43683;BME280;29285;52.128;21.060;2022-11-20T07:28:57;100095.22;;;-2.00;66.00
43683;BME280;29285;52.128;21.060;2022-11-20T07:33:59;100098.33;;;-1.95;65.98
43683;BME280;29285;52.128;21.060;2022-11-20T07:39:00;100105.84;;;-1.86;66.05
43683;BME280;29285;52.128;21.060;2022-11-20T07:44:02;100101.41;;;-1.78;66.09
43683;BME280;29285;52.128;21.060;2022-11-20T07:49:03;100093.61;;;-1.68;66.15
43683;BME280;29285;52.128;21.060;2022-11-20T07:54:05;100093.27;;;-1.66;66.18
43683;BME280;29285;52.128;21.060;2022-11-20T07:59:06;100096.27;;;-1.65;66.19
43683;BME280;29285;52.128;21.060;2022-11-20T08:04:07;100093.27;;;-1.66;66.11
43683;BME280;29285;52.128;21.060;2022-11-20T08:09:09;100092.28;;;-1.55;66.18
43683;BME280;29285;52.128;21.060;2022-11-20T08:14:11;100094.77;;;-1.58;66.15
43683;BME280;29285;52.128;21.060;2022-11-20T08:19:14;100094.71;;;-1.45;66.23
43683;BME280;29285;52.128;21.060;2022-11-20T08:24:17;100084.77;;;-1.36;66.32
43683;BME280;29285;52.128;21.060;2022-11-20T08:29:18;100080.66;;;-1.31;66.35
43683;BME280;29285;52.128;21.060;2022-11-20T08:34:20;100074.45;;;-1.39;66.34
43683;BME280;29285;52.128;21.060;2022-11-20T08:39:21;100077.45;;;-1.38;66.25
43683;BME280;29285;52.128;21.060;2022-11-20T08:44:22;100072.20;;;-1.14;66.45
43683;BME280;29285;52.128;21.060;2022-11-20T08:49:23;100065.59;;;-0.89;66.69
43683;BME280;29285;52.128;21.060;2022-11-20T08:54:25;100062.06;;;-0.77;66.83
43683;BME280;29285;52.128;21.060;2022-11-20T08:59:26;100067.27;;;-0.56;66.97
43683;BME280;29285;52.128;21.060;2022-11-20T09:04:28;100061.73;;;-0.39;67.12
43683;BME280;29285;52.128;21.060;2022-11-20T09:09:30;100061.61;;;-0.27;67.25
43683;BME280;29285;52.128;21.060;2022-11-20T09:14:31;100050.28;;;-0.36;67.19
43683;BME280;29285;52.128;21.060;2022-11-20T09:19:33;100038.20;;;-0.24;67.20
43683;BME280;29285;52.128;21.060;2022-11-20T09:24:35;100041.86;;;-0.15;67.25
43683;BME280;29285;52.128;21.060;2022-11-20T09:29:36;100033.39;;;-0.10;67.24
43683;BME280;29285;52.128;21.060;2022-11-20T09:34:37;100028.80;;;-0.06;67.25
43683;BME280;29285;52.128;21.060;2022-11-20T09:39:39;100023.05;;;0.04;67.27
43683;BME280;29285;52.128;21.060;2022-11-20T09:45:01;100015.02;;;0.06;67.31
43683;BME280;29285;52.128;21.060;2022-11-20T09:50:58;100011.06;;;0.21;67.38
43683;BME280;29285;52.128;21.060;2022-11-20T09:55:41;100004.50;;;0.34;67.49
43683;BME280;29285;52.128;21.060;2022-11-20T10:00:44;100011.13;;;0.46;67.59
43683;BME280;29285;52.128;21.060;2022-11-20T10:05:47;100015.89;;;0.50;67.64
43683;BME280;29285;52.128;21.060;2022-11-20T10:16:51;100018.54;;;0.11;67.25
43683;BME280;29285;52.128;21.060;2022-11-20T10:33:00;99985.13;;;0.47;67.47
43683;BME280;29285;52.128;21.060;2022-11-20T10:38:09;99982.63;;;0.74;67.83
43683;BME280;29285;52.128;21.060;2022-11-20T10:43:32;99970.52;;;1.14;68.20
43683;BME280;29285;52.128;21.060;2022-11-20T10:48:32;99969.70;;;1.42;68.46
43683;BME280;29285;52.128;21.060;2022-11-20T10:59:41;99961.28;;;2.16;68.87
43683;BME280;29285;52.128;21.060;2022-11-20T11:04:46;99960.17;;;2.70;69.28
43683;BME280;29285;52.128;21.060;2022-11-20T11:20:49;99959.98;;;4.30;70.20
43683;BME280;29285;52.128;21.060;2022-11-20T11:25:57;99955.37;;;4.62;70.03
43683;BME280;29285;52.128;21.060;2022-11-20T11:31:00;99941.68;;;5.23;70.41
43683;BME280;29285;52.128;21.060;2022-11-20T11:36:03;99954.58;;;5.15;70.12
43683;BME280;29285;52.128;21.060;2022-11-20T11:41:12;99962.30;;;5.04;69.19
43683;BME280;29285;52.128;21.060;2022-11-20T11:46:24;99948.53;;;5.50;68.82
43683;BME280;29285;52.128;21.060;2022-11-20T11:51:39;99941.33;;;6.47;69.58
43683;BME280;29285;52.128;21.060;2022-11-20T11:56:43;99931.62;;;6.85;70.05
43683;BME280;29285;52.128;21.060;2022-11-20T12:01:55;99931.75;;;7.25;69.25
43683;BME280;29285;52.128;21.060;2022-11-20T12:07:01;99923.25;;;9.46;69.18
43683;BME280;29285;52.128;21.060;2022-11-20T12:12:25;99912.32;;;10.39;67.77
43683;BME280;29285;52.128;21.060;2022-11-20T12:17:29;99912.86;;;9.46;66.26
43683;BME280;29285;52.128;21.060;2022-11-20T12:22:47;99905.30;;;11.01;65.27
43683;BME280;29285;52.128;21.060;2022-11-20T12:38:51;99886.39;;;11.92;62.45
43683;BME280;29285;52.128;21.060;2022-11-20T12:44:05;99876.63;;;12.71;60.97
43683;BME280;29285;52.128;21.060;2022-11-20T12:49:51;99877.77;;;11.58;59.22
43683;BME280;29285;52.128;21.060;2022-11-20T13:00:12;99860.12;;;10.08;59.11
43683;BME280;29285;52.128;21.060;2022-11-20T13:11:17;99860.73;;;8.51;58.41
43683;BME280;29285;52.128;21.060;2022-11-20T13:21:59;99857.61;;;7.18;57.89
43683;BME280;29285;52.128;21.060;2022-11-20T13:32:18;99844.76;;;5.74;57.36
43683;BME280;29285;52.128;21.060;2022-11-20T13:37:30;99835.44;;;5.22;57.31
43683;BME280;29285;52.128;21.060;2022-11-20T13:42:39;99836.38;;;4.75;57.29
43683;BME280;29285;52.128;21.060;2022-11-20T13:47:48;99844.08;;;4.47;57.52
43683;BME280;29285;52.128;21.060;2022-11-20T13:53:31;99840.57;;;4.09;57.63
43683;BME280;29285;52.128;21.060;2022-11-20T14:03:54;99829.19;;;3.48;57.85
43683;BME280;29285;52.128;21.060;2022-11-20T14:08:56;99831.63;;;3.23;58.01
43683;BME280;29285;52.128;21.060;2022-11-20T14:19:26;99824.07;;;2.81;58.23
43683;BME280;29285;52.128;21.060;2022-11-20T14:24:29;99815.86;;;2.70;58.44
43683;BME280;29285;52.128;21.060;2022-11-20T14:29:35;99812.33;;;2.57;58.64
43683;BME280;29285;52.128;21.060;2022-11-20T14:34:39;99812.28;;;2.51;58.84
43683;BME280;29285;52.128;21.060;2022-11-20T14:39:52;99814.33;;;2.42;59.04
43683;BME280;29285;52.128;21.060;2022-11-20T14:44:56;99809.12;;;2.34;59.23
43683;BME280;29285;52.128;21.060;2022-11-20T14:50:00;99806.47;;;2.23;59.38
43683;BME280;29285;52.128;21.060;2022-11-20T14:55:03;99810.66;;;2.15;59.50
43683;BME280;29285;52.128;21.060;2022-11-20T15:05:19;99800.39;;;2.15;60.01
43683;BME280;29285;52.128;21.060;2022-11-20T15:10:25;99797.25;;;2.02;60.12
43683;BME280;29285;52.128;21.060;2022-11-20T15:20:46;99796.20;;;1.82;60.26
43683;BME280;29285;52.128;21.060;2022-11-20T15:25:48;99797.03;;;1.80;60.43
43683;BME280;29285;52.128;21.060;2022-11-20T15:30:50;99788.42;;;1.75;60.58
43683;BME280;29285;52.128;21.060;2022-11-20T15:35:51;99790.47;;;1.66;60.68
43683;BME280;29285;52.128;21.060;2022-11-20T15:40:52;99793.73;;;1.54;60.72
43683;BME280;29285;52.128;21.060;2022-11-20T15:45:56;99793.71;;;1.52;60.86
43683;BME280;29285;52.128;21.060;2022-11-20T15:56:15;99794.83;;;1.38;61.05
43683;BME280;29285;52.128;21.060;2022-11-20T16:01:18;99779.37;;;1.34;61.19
43683;BME280;29285;52.128;21.060;2022-11-20T16:06:22;99775.42;;;1.26;61.27
43683;BME280;29285;52.128;21.060;2022-11-20T16:11:23;99786.02;;;1.19;61.37
43683;BME280;29285;52.128;21.060;2022-11-20T16:16:33;99781.60;;;1.09;61.42
43683;BME280;29285;52.128;21.060;2022-11-20T16:21:36;99779.34;;;0.99;61.46
43683;BME280;29285;52.128;21.060;2022-11-20T16:26:38;99779.75;;;0.97;61.58
43683;BME280;29285;52.128;21.060;2022-11-20T16:31:40;99791.23;;;0.94;61.70
43683;BME280;29285;52.128;21.060;2022-11-20T16:36:43;99788.55;;;0.86;61.82
43683;BME280;29285;52.128;21.060;2022-11-20T16:41:45;99799.23;;;0.87;61.94
43683;BME280;29285;52.128;21.060;2022-11-20T16:46:47;99800.98;;;0.89;62.12
43683;BME280;29285;52.128;21.060;2022-11-20T16:51:48;99784.77;;;0.90;62.28
43683;BME280;29285;52.128;21.060;2022-11-20T16:56:49;99783.81;;;0.82;62.38
43683;BME280;29285;52.128;21.060;2022-11-20T17:01:53;99784.22;;;0.82;62.48
43683;BME280;29285;52.128;21.060;2022-11-20T17:06:54;99785.03;;;0.79;62.58
43683;BME280;29285;52.128;21.060;2022-11-20T17:11:55;99773.94;;;0.80;62.74
43683;BME280;29285;52.128;21.060;2022-11-20T17:16:57;99776.86;;;0.75;62.83
43683;BME280;29285;52.128;21.060;2022-11-20T17:21:59;99772.14;;;0.73;62.94
43683;BME280;29285;52.128;21.060;2022-11-20T17:27:00;99781.11;;;0.73;63.07
43683;BME280;29285;52.128;21.060;2022-11-20T17:32:02;99782.33;;;0.70;63.16
43683;BME280;29285;52.128;21.060;2022-11-20T17:37:03;99772.46;;;0.66;63.24
43683;BME280;29285;52.128;21.060;2022-11-20T17:42:04;99759.19;;;0.63;63.32
43683;BME280;29285;52.128;21.060;2022-11-20T17:47:24;99758.70;;;0.59;63.39
43683;BME280;29285;52.128;21.060;2022-11-20T17:52:25;99753.92;;;0.54;63.43
43683;BME280;29285;52.128;21.060;2022-11-20T17:57:27;99742.78;;;0.50;63.50
43683;BME280;29285;52.128;21.060;2022-11-20T18:02:47;99728.20;;;0.46;63.54
43683;BME280;29285;52.128;21.060;2022-11-20T18:07:51;99716.21;;;0.44;63.63
43683;BME280;29285;52.128;21.060;2022-11-20T18:12:53;99703.76;;;0.38;63.72
43683;BME280;29285;52.128;21.060;2022-11-20T18:17:55;99698.58;;;0.34;63.78
43683;BME280;29285;52.128;21.060;2022-11-20T18:22:56;99694.65;;;0.29;63.83
43683;BME280;29285;52.128;21.060;2022-11-20T18:27:57;99694.50;;;0.20;63.87
43683;BME280;29285;52.128;21.060;2022-11-20T18:32:59;99692.75;;;0.16;63.92
43683;BME280;29285;52.128;21.060;2022-11-20T18:38:00;99693.94;;;0.11;63.97
43683;BME280;29285;52.128;21.060;2022-11-20T18:43:02;99683.30;;;0.11;64.09
43683;BME280;29285;52.128;21.060;2022-11-20T18:48:22;99692.23;;;0.10;64.18
43683;BME280;29285;52.128;21.060;2022-11-20T18:53:23;99686.64;;;0.07;64.28
43683;BME280;29285;52.128;21.060;2022-11-20T18:58:26;99685.27;;;0.01;64.33
43683;BME280;29285;52.128;21.060;2022-11-20T19:03:27;99689.95;;;0.00;64.41
43683;BME280;29285;52.128;21.060;2022-11-20T19:08:29;99689.10;;;0.01;64.53
43683;BME280;29285;52.128;21.060;2022-11-20T19:13:32;99694.72;;;0.05;64.67
43683;BME280;29285;52.128;21.060;2022-11-20T19:18:33;99683.67;;;0.09;64.79
43683;BME280;29285;52.128;21.060;2022-11-20T19:23:35;99680.24;;;0.07;64.87
43683;BME280;29285;52.128;21.060;2022-11-20T19:28:36;99669.16;;;0.08;64.97
43683;BME280;29285;52.128;21.060;2022-11-20T19:33:38;99664.55;;;0.12;65.12
43683;BME280;29285;52.128;21.060;2022-11-20T19:38:41;99664.13;;;0.15;65.21
43683;BME280;29285;52.128;21.060;2022-11-20T19:43:44;99665.53;;;0.21;65.34
43683;BME280;29285;52.128;21.060;2022-11-20T19:48:47;99657.39;;;0.20;65.45
43683;BME280;29285;52.128;21.060;2022-11-20T19:53:49;99649.34;;;0.22;65.57
43683;BME280;29285;52.128;21.060;2022-11-20T19:58:52;99654.11;;;0.27;65.69
43683;BME280;29285;52.128;21.060;2022-11-20T20:03:54;99651.92;;;0.25;65.78
43683;BME280;29285;52.128;21.060;2022-11-20T20:09:05;99643.02;;;0.28;65.87
43683;BME280;29285;52.128;21.060;2022-11-20T20:14:11;99641.80;;;0.31;65.96
43683;BME280;29285;52.128;21.060;2022-11-20T20:19:15;99636.23;;;0.32;66.05
43683;BME280;29285;52.128;21.060;2022-11-20T20:24:16;99637.06;;;0.29;66.11
43683;BME280;29285;52.128;21.060;2022-11-20T20:29:18;99634.53;;;0.31;66.16
43683;BME280;29285;52.128;21.060;2022-11-20T20:34:21;99632.02;;;0.34;66.28
43683;BME280;29285;52.128;21.060;2022-11-20T20:39:23;99632.29;;;0.24;66.28
43683;BME280;29285;52.128;21.060;2022-11-20T20:44:24;99634.94;;;0.29;66.33
43683;BME280;29285;52.128;21.060;2022-11-20T20:49:43;99629.38;;;0.29;66.42
43683;BME280;29285;52.128;21.060;2022-11-20T20:54:45;99636.70;;;0.34;66.55
43683;BME280;29285;52.128;21.060;2022-11-20T20:59:46;99633.33;;;0.37;66.67
43683;BME280;29285;52.128;21.060;2022-11-20T21:04:47;99629.00;;;0.31;66.68
43683;BME280;29285;52.128;21.060;2022-11-20T21:09:50;99629.92;;;0.36;66.76
43683;BME280;29285;52.128;21.060;2022-11-20T21:14:51;99622.19;;;0.33;66.90
43683;BME280;29285;52.128;21.060;2022-11-20T21:19:53;99622.05;;;0.24;66.87
43683;BME280;29285;52.128;21.060;2022-11-20T21:24:54;99628.72;;;0.12;66.85
43683;BME280;29285;52.128;21.060;2022-11-20T21:29:55;99619.81;;;-0.11;66.70
43683;BME280;29285;52.128;21.060;2022-11-20T21:34:56;99624.09;;;-0.10;66.76
43683;BME280;29285;52.128;21.060;2022-11-20T21:39:57;99624.09;;;-0.10;66.89
43683;BME280;29285;52.128;21.060;2022-11-20T21:44:58;99619.56;;;-0.02;67.05
43683;BME280;29285;52.128;21.060;2022-11-20T21:50:00;99626.97;;;0.10;67.30
43683;BME280;29285;52.128;21.060;2022-11-20T21:55:01;99620.05;;;0.03;67.39
43683;BME280;29285;52.128;21.060;2022-11-20T22:00:04;99618.38;;;-0.21;67.28
43683;BME280;29285;52.128;21.060;2022-11-20T22:05:06;99622.80;;;-0.37;67.23
43683;BME280;29285;52.128;21.060;2022-11-20T22:10:08;99622.20;;;-0.48;67.25
43683;BME280;29285;52.128;21.060;2022-11-20T22:15:10;99619.91;;;-0.56;67.29
43683;BME280;29285;52.128;21.060;2022-11-20T22:20:11;99619.51;;;-0.56;67.42
43683;BME280;29285;52.128;21.060;2022-11-20T22:25:14;99623.88;;;-0.50;67.62
43683;BME280;29285;52.128;21.060;2022-11-20T22:30:15;99615.14;;;-0.61;67.68
43683;BME280;29285;52.128;21.060;2022-11-20T22:35:17;99610.63;;;-0.51;67.85
43683;BME280;29285;52.128;21.060;2022-11-20T22:40:18;99611.57;;;-0.47;68.14
43683;BME280;29285;52.128;21.060;2022-11-20T22:45:20;99614.97;;;-0.47;68.24
43683;BME280;29285;52.128;21.060;2022-11-20T22:50:21;99605.86;;;-0.58;68.28
43683;BME280;29285;52.128;21.060;2022-11-20T22:55:22;99602.02;;;-0.58;68.36
43683;BME280;29285;52.128;21.060;2022-11-20T23:00:24;99608.71;;;-0.64;68.40
43683;BME280;29285;52.128;21.060;2022-11-20T23:05:25;99613.36;;;-0.89;68.27
43683;BME280;29285;52.128;21.060;2022-11-20T23:10:26;99625.34;;;-0.87;68.34
43683;BME280;29285;52.128;21.060;2022-11-20T23:15:27;99618.52;;;-0.86;68.46
43683;BME280;29285;52.128;21.060;2022-11-20T23:20:29;99617.98;;;-1.14;68.39
43683;BME280;29285;52.128;21.060;2022-11-20T23:25:30;99619.16;;;-1.41;68.31
43683;BME280;29285;52.128;21.060;2022-11-20T23:30:31;99628.72;;;-1.52;68.30
43683;BME280;29285;52.128;21.060;2022-11-20T23:35:37;99633.93;;;-1.66;68.34
43683;BME280;29285;52.128;21.060;2022-11-20T23:40:38;99627.86;;;-1.71;68.47
43683;BME280;29285;52.128;21.060;2022-11-20T23:45:44;99631.52;;;-1.78;68.56
43683;BME280;29285;52.128;21.060;2022-11-20T23:50:48;99626.67;;;-1.86;68.65
43683;BME280;29285;52.128;21.060;2022-11-20T23:55:52;99629.09;;;-1.92;68.78
